Time;durP1;ratioP1;P1;durP2;ratioP2;P2;SDS_P1;SDS_P2;PMS_P1;PMS_P2;Temp;Humidity;BMP_temperature;BMP_pressure;BME280_temperature;BME280_humidity;BME280_pressure;Samples;Min_cycle;Max_cycle;Signal;HPM_P1;HPM_P2
2022/06/24 00:00:40;;;;;;;20.85;12.38;;;;;;;20.71;85.59;100411.19;5090161;28;20380;-59
2022/06/24 00:03:06;;;;;;;21.15;12.23;;;;;;;20.69;85.19;100420.00;5090184;28;20135;-58
2022/06/24 00:05:34;;;;;;;22.67;12.93;;;;;;;20.73;86.28;100426.50;5089494;28;20020;-57
2022/06/24 00:08:00;;;;;;;22.05;13.23;;;;;;;20.81;86.37;100466.75;5089738;28;20028;-59
2022/06/24 00:10:32;;;;;;;21.50;13.48;;;;;;;20.80;86.19;100459.50;5090120;28;20035;-59
2022/06/24 00:12:58;;;;;;;24.30;13.82;;;;;;;20.82;86.00;100456.28;5089803;28;20031;-58
2022/06/24 00:15:29;;;;;;;21.98;12.75;;;;;;;20.80;84.16;100469.94;5089718;28;20032;-58
2022/06/24 00:17:55;;;;;;;19.55;11.48;;;;;;;20.94;81.24;100519.88;5089547;28;20411;-56
2022/06/24 00:20:22;;;;;;;20.08;12.30;;;;;;;20.99;82.85;100561.72;5089112;28;20036;-57
2022/06/24 00:22:49;;;;;;;20.80;12.35;;;;;;;21.02;82.78;100592.69;5089169;28;20020;-59
2022/06/24 00:25:22;;;;;;;20.73;12.65;;;;;;;20.92;84.13;100584.13;5089838;28;20141;-58
2022/06/24 00:28:05;;;;;;;20.17;12.10;;;;;;;20.92;83.47;100570.88;5089267;28;20199;-57
2022/06/24 00:30:45;;;;;;;22.17;14.18;;;;;;;20.94;84.91;100592.97;5089376;28;20085;-57
2022/06/24 00:33:12;;;;;;;24.13;15.52;;;;;;;20.85;87.00;100618.59;5089570;28;20104;-57
2022/06/24 00:35:43;;;;;;;25.70;17.67;;;;;;;20.76;88.82;100675.09;5089483;28;20089;-57
2022/06/24 00:38:37;;;;;;;27.55;19.58;;;;;;;20.57;90.66;100696.47;5089460;28;20508;-57
2022/06/24 00:41:13;;;;;;;29.63;21.05;;;;;;;20.40;94.88;100714.66;5089416;28;20433;-55
2022/06/24 00:43:43;;;;;;;29.90;22.92;;;;;;;20.32;96.57;100689.66;5092887;28;20071;-57
2022/06/24 00:46:24;;;;;;;32.80;24.33;;;;;;;20.31;96.86;100668.38;5093859;28;20208;-59
2022/06/24 00:48:54;;;;;;;31.38;24.42;;;;;;;20.47;95.55;100682.28;5093885;28;20121;-59
2022/06/24 00:51:22;;;;;;;30.48;25.92;;;;;;;20.44;95.74;100663.34;5093440;28;20518;-56
2022/06/24 00:53:51;;;;;;;31.60;24.88;;;;;;;20.30;95.77;100647.94;5092687;28;20036;-57
2022/06/24 00:56:18;;;;;;;27.23;20.33;;;;;;;20.49;92.59;100665.84;5093946;28;20039;-58
2022/06/24 00:58:58;;;;;;;25.63;15.95;;;;;;;20.38;90.36;100657.25;5093426;28;20100;-58
2022/06/24 01:01:34;;;;;;;19.58;11.38;;;;;;;19.95;88.52;100648.94;5093457;28;20159;-55
2022/06/24 01:04:02;;;;;;;14.60;9.15;;;;;;;19.77;86.54;100643.03;5093449;28;20040;-57
2022/06/24 01:06:29;;;;;;;15.93;8.73;;;;;;;19.26;87.58;100647.69;5093174;28;20134;-57
2022/06/24 01:08:55;;;;;;;15.75;8.90;;;;;;;18.97;88.76;100632.31;5092994;28;20020;-56
2022/06/24 01:11:38;;;;;;;14.32;8.75;;;;;;;18.71;89.13;100639.31;5093176;28;20027;-57
2022/06/24 01:14:04;;;;;;;14.60;8.52;;;;;;;18.48;90.67;100642.03;5092499;28;20047;-56
2022/06/24 01:16:30;;;;;;;12.15;8.20;;;;;;;18.64;89.43;100634.41;5092597;28;20331;-56
2022/06/24 01:18:57;;;;;;;13.35;7.70;;;;;;;18.31;88.23;100629.25;5092890;28;20039;-55
2022/06/24 01:21:31;;;;;;;11.80;7.72;;;;;;;18.27;89.94;100623.56;5093060;28;20028;-56
2022/06/24 01:24:07;;;;;;;13.60;8.15;;;;;;;18.36;89.80;100638.19;5092490;28;20549;-55
2022/06/24 01:26:34;;;;;;;12.07;7.75;;;;;;;18.15;91.98;100623.69;5092016;28;20040;-55
2022/06/24 01:28:59;;;;;;;15.02;9.20;;;;;;;18.00;90.77;100614.91;5091185;28;20122;-56
2022/06/24 01:31:25;;;;;;;12.30;8.55;;;;;;;18.18;90.09;100606.97;5091638;28;20482;-55
2022/06/24 01:33:50;;;;;;;14.63;8.70;;;;;;;18.14;89.76;100603.25;5091643;28;20493;-56
2022/06/24 01:36:15;;;;;;;13.98;9.15;;;;;;;18.22;89.27;100602.25;5091377;28;20447;-56
2022/06/24 01:38:41;;;;;;;13.73;8.65;;;;;;;18.23;89.44;100592.66;5089669;28;20501;-56
2022/06/24 01:41:06;;;;;;;12.40;8.77;;;;;;;18.28;89.90;100601.97;5091099;28;20107;-59
2022/06/24 01:43:31;;;;;;;11.05;8.35;;;;;;;18.33;88.11;100580.09;5091098;28;20387;-56
2022/06/24 01:45:56;;;;;;;12.50;8.80;;;;;;;18.35;89.08;100572.16;5091702;28;20110;-58
2022/06/24 01:48:22;;;;;;;11.20;8.50;;;;;;;18.25;89.40;100561.53;5091659;28;20027;-58
2022/06/24 01:50:47;;;;;;;13.85;8.65;;;;;;;17.98;89.04;100566.91;5091752;28;20022;-57
2022/06/24 01:53:12;;;;;;;13.52;8.50;;;;;;;17.83;89.47;100574.13;5091447;28;20116;-54
2022/06/24 01:55:38;;;;;;;12.90;8.70;;;;;;;17.90;90.76;100582.69;5090258;28;20056;-57
2022/06/24 01:58:04;;;;;;;13.32;8.77;;;;;;;17.87;91.47;100571.41;5091191;28;20316;-58
2022/06/24 02:00:30;;;;;;;10.77;8.20;;;;;;;17.91;90.64;100573.13;5091901;28;20157;-59
2022/06/24 02:02:55;;;;;;;13.07;8.65;;;;;;;17.81;90.46;100578.44;5091533;28;20546;-58
2022/06/24 02:05:20;;;;;;;11.50;8.20;;;;;;;17.78;90.37;100566.00;5091667;28;20035;-58
2022/06/24 02:07:45;;;;;;;14.75;9.05;;;;;;;17.75;91.66;100567.53;5091626;28;20383;-58
2022/06/24 02:15:38;;;;;;;;;;;;;;;18.14;88.38;100572.44;5091085;28;20105;-59
2022/06/24 02:18:04;;;;;;;13.23;8.60;;;;;;;18.17;88.33;100574.53;5090361;28;19911;-57
2022/06/24 02:20:29;;;;;;;15.00;9.27;;;;;;;18.00;88.32;100586.13;5090917;28;20346;-57
2022/06/24 02:22:54;;;;;;;13.68;8.80;;;;;;;17.80;89.74;100576.84;5090522;28;20025;-57
2022/06/24 02:25:20;;;;;;;14.73;8.48;;;;;;;17.93;90.60;100576.38;5064181;22;1038269;-55
2022/06/24 02:27:46;;;;;;;12.52;9.00;;;;;;;17.85;89.80;100582.16;5051747;28;20041;-52
2022/06/24 02:30:12;;;;;;;13.68;8.85;;;;;;;17.95;90.22;100584.38;5066203;28;20468;-52
2022/06/24 02:32:37;;;;;;;13.27;8.50;;;;;;;17.91;90.78;100591.88;5051411;28;20036;-53
2022/06/24 02:35:03;;;;;;;14.35;9.00;;;;;;;17.84;90.70;100591.72;5051546;28;20079;-53
2022/06/24 02:37:28;;;;;;;11.82;8.68;;;;;;;17.84;91.93;100574.91;5066402;28;20542;-53
2022/06/24 02:39:53;;;;;;;12.60;8.68;;;;;;;17.75;91.81;100570.31;5050587;28;20025;-52
2022/06/24 02:42:19;;;;;;;13.38;9.00;;;;;;;17.74;92.90;100568.69;5050748;28;20093;-52
2022/06/24 02:44:44;;;;;;;14.25;9.20;;;;;;;17.67;92.79;100571.31;5051095;28;20441;-53
2022/06/24 02:47:09;;;;;;;13.57;8.73;;;;;;;17.68;93.04;100574.94;5050293;28;20120;-53
2022/06/24 02:49:35;;;;;;;15.75;9.10;;;;;;;17.78;93.20;100569.63;5050369;28;20376;-52
2022/06/24 02:52:00;;;;;;;15.13;9.55;;;;;;;17.74;92.26;100570.69;5065320;28;20411;-52
2022/06/24 02:54:25;;;;;;;15.95;9.20;;;;;;;17.66;92.57;100561.31;5049560;28;20088;-54
2022/06/24 02:56:50;;;;;;;14.60;9.07;;;;;;;17.62;93.70;100552.00;5051363;28;20029;-51
2022/06/24 02:59:16;;;;;;;14.18;9.32;;;;;;;17.65;93.54;100553.28;5051084;28;20029;-53
2022/06/24 03:01:41;;;;;;;15.02;8.90;;;;;;;17.72;93.79;100553.47;5051266;28;20341;-51
2022/06/24 03:04:06;;;;;;;16.92;9.50;;;;;;;17.72;93.19;100548.66;5050965;28;20116;-53
2022/06/24 03:06:32;;;;;;;14.98;9.27;;;;;;;17.81;92.70;100547.66;5050324;28;20111;-53
2022/06/24 03:08:57;;;;;;;13.95;9.02;;;;;;;17.73;93.37;100541.91;5050090;28;20064;-51
2022/06/24 03:11:22;;;;;;;14.73;9.95;;;;;;;17.77;93.02;100526.03;5049591;28;20029;-53
2022/06/24 03:13:47;;;;;;;13.98;9.15;;;;;;;17.85;92.75;100527.00;5049683;28;20104;-52
2022/06/24 03:16:13;;;;;;;17.17;10.63;;;;;;;17.76;94.20;100518.81;5051115;28;20021;-53
2022/06/24 03:18:38;;;;;;;18.42;10.85;;;;;;;17.66;93.94;100521.34;5050692;28;20072;-53
2022/06/24 03:21:06;;;;;;;16.38;10.23;;;;;;;17.49;94.86;100509.34;5050340;28;20025;-53
2022/06/24 03:23:32;;;;;;;17.00;10.40;;;;;;;17.51;95.06;100500.63;5050405;28;20086;-52
2022/06/24 03:25:57;;;;;;;14.30;9.80;;;;;;;17.49;94.32;100506.53;5050047;28;20053;-53
2022/06/24 03:28:22;;;;;;;17.52;11.40;;;;;;;17.36;96.19;100493.84;5050426;28;20029;-52
2022/06/24 03:30:48;;;;;;;17.45;11.30;;;;;;;17.29;97.27;100495.28;5050630;28;20029;-52
2022/06/24 03:33:13;;;;;;;16.73;11.00;;;;;;;17.31;97.22;100495.72;5050091;28;20017;-52
2022/06/24 03:35:38;;;;;;;17.80;10.85;;;;;;;17.34;96.81;100483.00;5050299;28;20033;-54
2022/06/24 03:38:04;;;;;;;16.05;10.57;;;;;;;17.38;96.86;100486.72;5050139;28;20039;-55
2022/06/24 03:40:29;;;;;;;16.90;10.95;;;;;;;17.44;97.47;100482.47;5049590;28;20470;-52
2022/06/24 03:42:54;;;;;;;17.88;11.02;;;;;;;17.35;97.70;100481.84;5049421;28;20024;-55
2022/06/24 03:45:20;;;;;;;18.65;11.32;;;;;;;17.30;97.91;100482.94;5049694;28;20438;-55
2022/06/24 03:47:45;;;;;;;17.70;11.15;;;;;;;17.28;98.43;100482.50;5050009;28;20469;-55
2022/06/24 03:50:11;;;;;;;16.92;11.10;;;;;;;17.26;98.59;100489.59;5049707;28;20088;-55
2022/06/24 03:52:36;;;;;;;17.88;10.80;;;;;;;17.28;98.99;100482.50;5048704;28;20052;-54
2022/06/24 03:55:01;;;;;;;17.10;10.40;;;;;;;17.30;98.38;100488.53;5049935;28;20051;-54
2022/06/24 03:57:27;;;;;;;18.15;11.18;;;;;;;17.35;98.48;100493.03;5049836;28;20029;-54
2022/06/24 03:59:52;;;;;;;19.58;11.18;;;;;;;17.40;98.12;100486.34;5050169;28;20475;-55
2022/06/24 04:02:18;;;;;;;18.15;12.07;;;;;;;17.32;98.17;100479.78;5049612;28;20111;-53
2022/06/24 04:04:44;;;;;;;18.60;10.88;;;;;;;17.35;98.47;100481.84;5049829;28;20048;-54
2022/06/24 04:07:09;;;;;;;18.23;11.55;;;;;;;17.41;98.32;100485.19;5048843;28;20029;-54
2022/06/24 04:09:34;;;;;;;16.40;10.90;;;;;;;17.37;98.65;100482.28;5049340;28;20424;-53
2022/06/24 04:12:00;;;;;;;19.88;12.07;;;;;;;17.36;98.61;100489.06;5049498;28;20113;-53
2022/06/24 04:17:09;;;;;;;17.65;11.73;;;;;;;17.52;98.29;100511.44;5048027;28;20052;-52
2022/06/24 04:19:35;;;;;;;17.30;11.65;;;;;;;17.61;99.10;100526.03;5048423;28;20025;-53
2022/06/24 04:22:02;;;;;;;19.05;12.25;;;;;;;17.63;98.16;100542.44;5048506;28;20192;-53
2022/06/24 04:24:27;;;;;;;17.80;12.15;;;;;;;17.64;98.63;100546.06;5048436;28;20033;-52
2022/06/24 04:26:52;;;;;;;17.27;11.82;;;;;;;17.65;97.62;100537.31;5048404;28;20224;-54
2022/06/24 04:29:17;;;;;;;18.50;11.27;;;;;;;17.73;97.46;100543.91;5049409;28;20185;-54
2022/06/24 04:31:43;;;;;;;18.45;11.43;;;;;;;17.73;96.75;100541.91;5049660;28;20044;-53
2022/06/24 04:34:08;;;;;;;17.45;10.68;;;;;;;17.74;97.12;100534.34;5049055;28;20383;-54
2022/06/24 04:36:33;;;;;;;17.60;11.00;;;;;;;17.73;98.10;100536.31;5049777;28;20095;-54
2022/06/24 04:38:59;;;;;;;17.98;11.45;;;;;;;17.73;98.22;100530.72;5049474;28;20045;-54
2022/06/24 04:41:25;;;;;;;19.63;11.82;;;;;;;17.82;98.76;100527.72;5046875;28;20029;-51
2022/06/24 04:43:50;;;;;;;18.95;11.13;;;;;;;17.93;97.58;100520.41;5048648;28;20032;-53
2022/06/24 04:46:15;;;;;;;19.40;11.98;;;;;;;17.88;97.62;100511.47;5048306;28;20044;-53
2022/06/24 04:48:41;;;;;;;19.27;11.57;;;;;;;18.01;97.77;100540.19;5048193;28;20486;-53
2022/06/24 04:51:11;;;;;;;19.17;12.50;;;;;;;18.02;97.41;100539.00;5048824;28;20017;-53
2022/06/24 04:53:36;;;;;;;18.08;11.30;;;;;;;18.05;96.83;100538.25;5048057;28;20045;-54
2022/06/24 04:56:02;;;;;;;19.90;11.77;;;;;;;18.05;96.59;100527.88;5049089;28;20059;-53
2022/06/24 04:58:27;;;;;;;19.33;11.40;;;;;;;18.14;96.41;100538.06;5049464;28;20064;-53
2022/06/24 05:00:52;;;;;;;19.90;12.05;;;;;;;18.15;96.45;100543.28;5049015;28;20055;-53
2022/06/24 05:03:18;;;;;;;20.75;12.63;;;;;;;18.18;96.40;100542.56;5048274;28;20068;-49
2022/06/24 05:05:43;;;;;;;21.17;12.95;;;;;;;18.18;95.84;100534.16;5048322;28;20029;-51
2022/06/24 05:08:09;;;;;;;20.80;12.50;;;;;;;18.19;96.31;100532.16;5047016;28;20222;-52
2022/06/24 05:10:34;;;;;;;19.40;12.70;;;;;;;18.18;97.14;100528.56;5048659;28;20124;-52
2022/06/24 05:13:00;;;;;;;20.92;12.05;;;;;;;18.23;96.72;100533.06;5048028;28;20239;-52
2022/06/24 05:15:25;;;;;;;19.67;12.20;;;;;;;18.32;97.02;100541.28;5048110;28;20029;-51
2022/06/24 05:17:50;;;;;;;19.33;11.95;;;;;;;18.34;97.33;100541.69;5048241;28;20033;-52
2022/06/24 05:20:16;;;;;;;20.77;12.40;;;;;;;18.43;97.09;100549.91;5048811;28;20055;-54
2022/06/24 05:22:41;;;;;;;19.60;12.38;;;;;;;18.47;96.41;100548.78;5046938;28;20098;-54
2022/06/24 05:25:08;;;;;;;19.75;12.18;;;;;;;18.51;97.08;100548.88;5046880;28;20067;-56
2022/06/24 05:27:34;;;;;;;19.60;12.40;;;;;;;18.54;96.48;100554.53;5050088;28;20064;-54
2022/06/24 05:29:59;;;;;;;19.33;11.77;;;;;;;18.53;96.46;100544.50;5053422;28;20064;-55
2022/06/24 05:32:24;;;;;;;19.48;12.27;;;;;;;18.45;96.76;100539.13;5053265;28;20029;-54
2022/06/24 05:34:50;;;;;;;19.35;12.05;;;;;;;18.49;96.83;100543.63;5052898;28;20184;-54
2022/06/24 05:37:15;;;;;;;18.42;12.30;;;;;;;18.44;97.37;100546.72;5053185;28;20140;-53
2022/06/24 05:39:40;;;;;;;18.63;12.77;;;;;;;18.35;97.25;100549.75;5053255;28;20418;-54
2022/06/24 05:42:06;;;;;;;18.20;11.77;;;;;;;18.40;97.13;100554.25;5053317;28;20067;-54
2022/06/24 05:44:31;;;;;;;20.58;13.00;;;;;;;18.33;97.41;100548.47;5052879;28;20028;-54
2022/06/24 05:46:56;;;;;;;19.83;12.45;;;;;;;18.36;97.77;100545.78;5051606;28;20456;-53
2022/06/24 05:49:22;;;;;;;19.10;12.30;;;;;;;18.35;97.71;100555.34;5053200;28;20033;-54
2022/06/24 05:51:47;;;;;;;18.38;12.05;;;;;;;18.34;97.56;100548.13;5053082;28;20086;-53
2022/06/24 05:56:56;;;;;;;;;;;;;;;18.37;95.28;100552.97;5053224;28;20087;-54
2022/06/24 05:59:22;;;;;;;20.25;13.50;;;;;;;18.23;97.65;100542.25;5052544;28;19909;-54
2022/06/24 06:01:49;;;;;;;19.77;12.68;;;;;;;18.32;97.52;100544.88;5052565;28;20061;-54
2022/06/24 06:04:14;;;;;;;19.98;13.68;;;;;;;18.32;97.42;100541.28;5052745;28;20028;-54
2022/06/24 06:06:40;;;;;;;19.45;13.70;;;;;;;18.36;97.95;100540.16;5052601;28;20090;-52
2022/06/24 06:09:05;;;;;;;19.70;14.00;;;;;;;18.40;97.92;100540.25;5052150;28;20025;-54
2022/06/24 06:11:31;;;;;;;20.95;14.25;;;;;;;18.39;97.50;100541.41;5052460;28;20029;-54
2022/06/24 06:13:57;;;;;;;20.00;13.57;;;;;;;18.36;97.83;100548.56;5052463;28;20029;-55
2022/06/24 06:16:22;;;;;;;21.52;13.50;;;;;;;18.37;97.60;100552.97;5051769;28;20021;-54
2022/06/24 06:18:49;;;;;;;19.55;13.43;;;;;;;18.34;97.28;100558.50;5051760;28;20033;-53
2022/06/24 06:21:15;;;;;;;20.70;14.18;;;;;;;18.32;97.59;100544.06;5051771;28;20025;-53
2022/06/24 06:23:41;;;;;;;20.55;13.95;;;;;;;18.35;98.39;100546.13;5050410;28;20104;-56
2022/06/24 06:26:08;;;;;;;20.77;14.07;;;;;;;18.32;98.60;100549.66;5051376;28;20056;-53
2022/06/24 06:28:34;;;;;;;21.15;14.30;;;;;;;18.32;98.36;100555.28;5051772;28;20112;-54
2022/06/24 06:31:00;;;;;;;20.77;13.88;;;;;;;18.41;98.38;100553.06;5051950;28;20467;-53
2022/06/24 06:33:26;;;;;;;20.08;14.57;;;;;;;18.45;98.61;100558.75;5051866;28;20029;-54
2022/06/24 06:35:51;;;;;;;22.02;14.85;;;;;;;18.44;98.70;100568.31;5051878;28;20044;-51
2022/06/24 06:38:17;;;;;;;20.88;14.50;;;;;;;18.57;98.70;100566.19;5051671;28;20055;-55
2022/06/24 06:40:43;;;;;;;22.15;14.75;;;;;;;18.52;97.77;100559.69;5050725;28;20119;-54
2022/06/24 06:43:09;;;;;;;21.65;15.15;;;;;;;18.57;97.41;100567.00;5051403;28;20025;-51
2022/06/24 06:45:36;;;;;;;22.02;16.77;;;;;;;18.58;98.37;100565.00;5051274;28;20090;-49
2022/06/24 06:48:02;;;;;;;21.50;15.85;;;;;;;18.58;97.43;100565.00;5051299;28;20111;-49
2022/06/24 06:50:27;;;;;;;22.52;16.48;;;;;;;18.62;97.98;100565.88;5051654;28;20412;-51
2022/06/24 06:52:53;;;;;;;22.60;16.48;;;;;;;18.56;97.69;100573.78;5051509;28;20114;-51
2022/06/24 06:55:19;;;;;;;22.88;16.95;;;;;;;18.58;97.81;100576.22;5051135;28;20052;-53
2022/06/24 06:57:44;;;;;;;23.75;17.52;;;;;;;18.61;98.34;100572.69;5050620;28;20077;-51
2022/06/24 07:00:10;;;;;;;24.52;18.23;;;;;;;18.61;98.56;100573.50;5050839;28;20364;-54
2022/06/24 07:02:39;;;;;;;23.08;17.23;;;;;;;18.62;98.60;100575.13;5051727;28;20032;-52
2022/06/24 07:05:05;;;;;;;22.63;17.23;;;;;;;18.63;98.79;100571.13;5030097;28;20076;-52
2022/06/24 07:07:30;;;;;;;24.40;18.23;;;;;;;18.64;99.06;100567.16;5029354;28;20212;-53
2022/06/24 07:09:56;;;;;;;23.52;18.10;;;;;;;18.61;98.75;100567.88;5028309;28;20115;-53
2022/06/24 07:12:22;;;;;;;25.48;18.88;;;;;;;18.57;99.57;100569.78;5028169;28;20035;-51
2022/06/24 07:14:47;;;;;;;21.85;17.65;;;;;;;18.54;99.54;100576.94;5029008;28;20036;-52
2022/06/24 07:17:13;;;;;;;23.85;18.27;;;;;;;18.52;100.00;100568.09;5033621;28;20113;-53
2022/06/24 07:19:38;;;;;;;26.73;18.83;;;;;;;18.43;100.00;100569.50;5057589;28;20214;-51
2022/06/24 07:22:04;;;;;;;24.40;17.58;;;;;;;18.42;100.00;100565.06;5047236;28;20428;-55
2022/06/24 07:24:30;;;;;;;22.52;16.83;;;;;;;18.40;100.00;100557.03;5047172;28;20127;-51
2022/06/24 07:26:55;;;;;;;22.83;16.55;;;;;;;18.35;100.00;100555.34;5049413;28;20179;-51
2022/06/24 07:29:20;;;;;;;24.23;17.17;;;;;;;18.38;100.00;100551.00;5059953;28;20831;-51
2022/06/24 07:31:47;;;;;;;22.50;17.00;;;;;;;18.36;100.00;100542.97;5068872;28;20028;-50
2022/06/24 07:34:14;;;;;;;23.25;17.65;;;;;;;18.37;100.00;100547.38;5066883;28;20024;-52
2022/06/24 07:36:40;;;;;;;23.52;17.60;;;;;;;18.38;100.00;100534.19;5068479;28;20323;-52
2022/06/24 07:39:05;;;;;;;23.33;17.70;;;;;;;18.35;100.00;100535.75;5068512;28;20032;-51
2022/06/24 07:41:30;;;;;;;22.13;15.85;;;;;;;18.42;100.00;100525.88;5067366;28;20457;-52
2022/06/24 07:43:55;;;;;;;21.58;16.42;;;;;;;18.44;100.00;100535.50;5068507;28;20447;-50
2022/06/24 07:46:21;;;;;;;21.20;16.08;;;;;;;18.46;100.00;100533.16;5068472;28;20028;-52
2022/06/24 07:48:46;;;;;;;21.23;15.63;;;;;;;18.55;100.00;100532.97;5068498;28;20376;-50
2022/06/24 07:51:13;;;;;;;23.08;16.25;;;;;;;18.64;100.00;100547.56;5068079;28;20103;-51
2022/06/24 07:53:40;;;;;;;22.25;16.05;;;;;;;18.70;100.00;100551.66;5068480;28;20028;-52
2022/06/24 07:58:49;;;;;;;22.13;16.13;;;;;;;18.83;100.00;100554.31;5068542;28;20509;-53
2022/06/24 08:01:16;;;;;;;21.85;16.10;;;;;;;18.85;100.00;100560.34;5068185;28;20028;-52
2022/06/24 08:03:41;;;;;;;22.60;16.40;;;;;;;18.93;100.00;100558.53;5068423;28;20028;-49
2022/06/24 08:06:07;;;;;;;22.20;16.67;;;;;;;18.95;100.00;100564.59;5068469;28;20520;-52
2022/06/24 08:08:32;;;;;;;22.63;16.35;;;;;;;18.97;99.85;100559.44;5068555;28;20032;-52
2022/06/24 08:10:57;;;;;;;21.50;16.42;;;;;;;18.97;99.43;100560.22;5067134;28;20144;-53
2022/06/24 08:13:22;;;;;;;21.98;16.60;;;;;;;19.00;99.78;100561.47;5067057;28;20434;-54
2022/06/24 08:15:48;;;;;;;21.58;16.02;;;;;;;18.94;99.03;100572.16;5068431;28;20024;-51
2022/06/24 08:18:13;;;;;;;22.27;16.60;;;;;;;18.89;99.89;100560.44;5068409;28;20374;-51
2022/06/24 08:20:38;;;;;;;22.30;16.90;;;;;;;18.85;100.00;100575.19;5068279;28;20059;-53
2022/06/24 08:23:04;;;;;;;22.95;16.90;;;;;;;18.83;100.00;100563.53;5068165;28;20059;-53
2022/06/24 08:25:29;;;;;;;22.15;16.23;;;;;;;18.84;100.00;100565.16;5068047;28;20056;-54
2022/06/24 08:27:55;;;;;;;22.55;16.10;;;;;;;18.85;100.00;100568.75;5068831;28;20062;-54
2022/06/24 08:30:20;;;;;;;22.45;16.60;;;;;;;18.86;100.00;100560.00;5068606;28;20432;-54
2022/06/24 08:32:46;;;;;;;22.85;16.88;;;;;;;18.95;100.00;100567.38;5068883;28;20036;-53
2022/06/24 08:35:11;;;;;;;22.95;17.63;;;;;;;19.08;100.00;100554.03;5066133;28;20020;-54
2022/06/24 08:37:36;;;;;;;22.67;18.10;;;;;;;19.15;99.97;100557.78;5067878;28;20094;-51
2022/06/24 08:40:02;;;;;;;25.45;18.05;;;;;;;19.34;99.50;100558.91;5067857;28;20021;-53
2022/06/24 08:42:29;;;;;;;23.63;19.23;;;;;;;19.38;99.50;100558.97;5061858;28;20418;-54
2022/06/24 08:44:58;;;;;;;23.67;19.02;;;;;;;19.36;99.47;100572.53;5048441;28;20025;-53
2022/06/24 08:47:24;;;;;;;24.80;19.42;;;;;;;19.33;98.99;100574.91;5048211;28;20025;-53
2022/06/24 08:49:49;;;;;;;25.73;20.58;;;;;;;19.22;97.95;100570.28;5047696;28;20171;-53
2022/06/24 08:52:16;;;;;;;26.05;20.65;;;;;;;19.13;99.65;100565.75;5047740;28;20021;-53
2022/06/24 08:54:43;;;;;;;26.85;22.80;;;;;;;19.16;100.00;100562.19;5048091;28;20033;-53
2022/06/24 08:57:11;;;;;;;27.42;22.15;;;;;;;19.38;100.00;100561.78;5047771;28;20021;-54
2022/06/24 08:59:36;;;;;;;28.40;22.92;;;;;;;19.65;99.86;100548.59;5047940;28;20052;-54
2022/06/24 09:02:02;;;;;;;27.77;23.55;;;;;;;19.94;99.16;100549.06;5047464;28;20432;-52
2022/06/24 09:04:27;;;;;;;26.67;21.95;;;;;;;20.16;95.60;100555.84;5050627;28;20035;-54
2022/06/24 09:06:54;;;;;;;26.15;21.80;;;;;;;20.40;93.55;100548.13;5051890;28;20490;-54
2022/06/24 09:09:24;;;;;;;26.60;22.80;;;;;;;20.60;92.86;100548.78;5051599;28;20021;-54
2022/06/24 09:11:56;;;;;;;28.08;23.02;;;;;;;20.81;92.29;100542.66;5050475;28;20028;-54
2022/06/24 09:14:21;;;;;;;28.73;24.60;;;;;;;20.98;91.88;100546.03;5051140;28;20092;-54
2022/06/24 09:16:47;;;;;;;26.77;21.90;;;;;;;21.08;87.43;100544.50;5050945;28;20055;-53
2022/06/24 09:19:15;;;;;;;26.48;22.40;;;;;;;21.17;86.78;100551.47;5051219;28;20601;-53
2022/06/24 09:21:41;;;;;;;26.45;21.20;;;;;;;21.21;84.45;100539.44;5051365;28;20017;-54
2022/06/24 09:24:08;;;;;;;25.40;20.45;;;;;;;21.39;83.78;100546.03;5051052;28;20075;-50
2022/06/24 09:26:42;;;;;;;24.80;20.13;;;;;;;21.58;85.11;100550.66;5049030;28;20088;-51
2022/06/24 09:29:12;;;;;;;25.05;20.38;;;;;;;21.69;83.78;100550.72;5050841;28;20432;-52
2022/06/24 09:31:39;;;;;;;26.27;20.42;;;;;;;21.87;84.18;100547.25;5050593;28;20051;-52
2022/06/24 09:34:09;;;;;;;25.60;19.40;;;;;;;22.05;83.25;100550.19;5049981;28;20487;-52
2022/06/24 09:36:36;;;;;;;24.92;20.60;;;;;;;22.18;83.07;100557.13;5049376;28;20133;-52
2022/06/24 09:39:07;;;;;;;24.98;20.10;;;;;;;22.20;81.10;100553.91;5050478;28;20115;-51
2022/06/24 09:41:47;;;;;;;24.42;18.58;;;;;;;22.29;81.67;100554.34;5050707;28;20090;-51
2022/06/24 09:44:13;;;;;;;23.27;17.33;;;;;;;22.22;77.32;100552.28;5050391;28;20039;-52
2022/06/24 09:46:38;;;;;;;23.92;18.27;;;;;;;22.45;80.22;100565.34;5050432;28;20032;-52
2022/06/24 09:49:06;;;;;;;21.80;15.60;;;;;;;22.58;76.56;100560.16;5050435;28;20108;-53
2022/06/24 09:51:32;;;;;;;22.13;16.48;;;;;;;22.82;76.47;100557.81;5048972;28;20029;-54
2022/06/24 09:53:58;;;;;;;21.48;15.25;;;;;;;22.82;74.08;100555.81;5050656;28;20029;-54
2022/06/24 09:56:24;;;;;;;21.25;15.50;;;;;;;22.97;75.88;100555.84;5051230;28;20431;-55
2022/06/24 10:01:40;;;;;;;20.08;13.60;;;;;;;22.94;70.80;100549.00;5051211;28;20151;-54
2022/06/24 10:04:09;;;;;;;21.33;13.73;;;;;;;22.92;72.40;100550.63;5050198;28;20120;-52
2022/06/24 10:06:36;;;;;;;20.52;14.55;;;;;;;23.11;69.24;100550.25;5050122;28;20040;-55
2022/06/24 10:09:06;;;;;;;21.05;15.55;;;;;;;23.18;72.38;100538.19;5050085;28;20116;-55
2022/06/24 10:11:37;;;;;;;20.73;15.35;;;;;;;23.31;69.63;100545.06;5049920;28;20037;-52
2022/06/24 10:14:03;;;;;;;21.10;16.25;;;;;;;23.32;70.24;100545.88;5050190;28;20069;-53
2022/06/24 10:16:29;;;;;;;21.77;16.15;;;;;;;23.45;70.17;100544.28;5050059;28;20104;-52
2022/06/24 10:18:56;;;;;;;23.27;17.73;;;;;;;23.62;71.13;100548.31;5048341;28;20052;-54
2022/06/24 10:21:22;;;;;;;23.30;18.17;;;;;;;23.77;67.12;100540.66;5049703;28;20025;-53
2022/06/24 10:23:47;;;;;;;23.80;18.35;;;;;;;23.94;67.41;100536.22;5048254;28;20516;-54
2022/06/24 10:26:28;;;;;;;22.47;17.57;;;;;;;24.16;67.84;100527.69;5049737;28;20059;-53
2022/06/24 10:29:09;;;;;;;23.38;16.73;;;;;;;24.37;66.01;100545.78;5050073;28;20041;-52
2022/06/24 10:31:37;;;;;;;22.30;17.20;;;;;;;24.31;66.65;100545.41;5048393;28;20117;-54
2022/06/24 10:34:02;;;;;;;24.00;18.92;;;;;;;24.03;64.26;100541.44;5049668;28;20451;-54
2022/06/24 10:36:31;;;;;;;22.98;19.00;;;;;;;23.75;66.55;100550.75;5047983;28;20025;-54
2022/06/24 10:39:08;;;;;;;22.65;18.70;;;;;;;23.49;68.81;100547.09;5049878;28;20040;-53
2022/06/24 10:41:38;;;;;;;23.20;18.33;;;;;;;23.23;68.17;100553.94;5048604;28;20029;-54
2022/06/24 10:44:27;;;;;;;23.60;18.67;;;;;;;23.04;70.89;100556.69;5049194;28;20530;-54
2022/06/24 10:47:05;;;;;;;25.27;19.92;;;;;;;22.89;71.54;100561.47;5049809;28;20033;-55
2022/06/24 10:49:48;;;;;;;23.42;17.88;;;;;;;;;;5048611;28;20187;-54
2022/06/24 10:52:32;;;;;;;;;;;;;;;22.68;69.10;100587.59;5049686;28;20041;-52
2022/06/24 10:55:28;;;;;;;18.48;11.93;;;;;;;21.73;70.64;100588.16;5049480;28;19942;-53
2022/06/24 10:58:00;;;;;;;18.58;12.23;;;;;;;21.18;75.33;100583.19;5049122;28;20395;-54
2022/06/24 11:00:39;;;;;;;17.70;11.63;;;;;;;20.84;76.57;100598.09;5049654;28;20044;-52
2022/06/24 11:03:04;;;;;;;17.58;11.07;;;;;;;20.36;79.54;100606.25;5049375;28;20029;-52
2022/06/24 11:05:32;;;;;;;19.07;11.30;;;;;;;20.05;81.34;100606.19;5047893;28;20074;-50
2022/06/24 11:07:59;;;;;;;18.90;12.20;;;;;;;19.82;83.43;100609.00;5049282;28;20287;-51
2022/06/24 11:10:29;;;;;;;18.15;11.13;;;;;;;19.58;83.61;100605.41;5049285;28;20029;-53
2022/06/24 11:12:58;;;;;;;17.88;11.23;;;;;;;19.46;86.02;100592.38;5049469;28;20064;-52
2022/06/24 11:15:36;;;;;;;17.00;10.82;;;;;;;19.36;84.80;100587.41;5049539;28;20063;-55
2022/06/24 11:18:28;;;;;;;17.90;11.10;;;;;;;19.33;84.61;100577.72;5049464;28;20032;-51
2022/06/24 11:20:56;;;;;;;17.73;11.30;;;;;;;19.27;85.11;100562.38;5048852;28;20047;-52
2022/06/24 11:23:24;;;;;;;16.23;11.10;;;;;;;19.24;83.79;100556.72;5031769;28;20095;-53
2022/06/24 11:25:58;;;;;;;17.73;11.20;;;;;;;19.46;83.99;100567.13;5028104;28;20072;-52
2022/06/24 11:28:28;;;;;;;18.27;11.95;;;;;;;19.51;85.26;100568.00;5028694;28;20067;-52